sensor_id;sensor_type;location;lat;lon;timestamp;temperature;humidity
21744;DHT22;11034;48.556;9.342;2022-11-20T00:01:04;4.80;99.90
21744;DHT22;11034;48.556;9.342;2022-11-20T00:03:33;4.80;99.90
21744;DHT22;11034;48.556;9.342;2022-11-20T00:06:01;4.80;99.90
21744;DHT22;11034;48.556;9.342;2022-11-20T00:08:30;4.70;99.90
21744;DHT22;11034;48.556;9.342;2022-11-20T00:11:03;4.70;99.90
21744;DHT22;11034;48.556;9.342;2022-11-20T00:13:31;4.60;99.90
21744;DHT22;11034;48.556;9.342;2022-11-20T00:16:00;4.60;99.90
21744;DHT22;11034;48.556;9.342;2022-11-20T00:18:28;4.60;99.90
21744;DHT22;11034;48.556;9.342;2022-11-20T00:21:00;4.50;99.90
21744;DHT22;11034;48.556;9.342;2022-11-20T00:23:30;4.50;99.90
21744;DHT22;11034;48.556;9.342;2022-11-20T00:26:02;4.50;99.90
21744;DHT22;11034;48.556;9.342;2022-11-20T00:28:30;4.50;99.90
21744;DHT22;11034;48.556;9.342;2022-11-20T00:31:02;4.50;99.90
21744;DHT22;11034;48.556;9.342;2022-11-20T00:33:31;4.40;99.90
21744;DHT22;11034;48.556;9.342;2022-11-20T00:36:00;4.50;99.90
21744;DHT22;11034;48.556;9.342;2022-11-20T00:38:30;4.40;99.90
21744;DHT22;11034;48.556;9.342;2022-11-20T00:40:59;4.50;99.90
21744;DHT22;11034;48.556;9.342;2022-11-20T00:43:28;4.40;99.90
21744;DHT22;11034;48.556;9.342;2022-11-20T00:45:57;4.40;99.90
21744;DHT22;11034;48.556;9.342;2022-11-20T00:48:25;4.40;99.90
21744;DHT22;11034;48.556;9.342;2022-11-20T00:50:54;4.50;99.90
21744;DHT22;11034;48.556;9.342;2022-11-20T00:53:22;4.50;99.90
21744;DHT22;11034;48.556;9.342;2022-11-20T00:55:57;4.50;99.90
21744;DHT22;11034;48.556;9.342;2022-11-20T00:58:29;4.40;99.90
21744;DHT22;11034;48.556;9.342;2022-11-20T01:01:02;4.40;99.90
21744;DHT22;11034;48.556;9.342;2022-11-20T01:03:31;4.40;99.90
21744;DHT22;11034;48.556;9.342;2022-11-20T01:06:00;4.40;99.90
21744;DHT22;11034;48.556;9.342;2022-11-20T01:08:30;4.30;99.90
21744;DHT22;11034;48.556;9.342;2022-11-20T01:11:00;4.30;99.90
21744;DHT22;11034;48.556;9.342;2022-11-20T01:13:29;4.30;99.90
21744;DHT22;11034;48.556;9.342;2022-11-20T01:16:09;4.20;99.90
21744;DHT22;11034;48.556;9.342;2022-11-20T01:18:42;4.10;99.90
21744;DHT22;11034;48.556;9.342;2022-11-20T01:21:12;4.10;99.90
21744;DHT22;11034;48.556;9.342;2022-11-20T01:23:41;4.10;99.90
21744;DHT22;11034;48.556;9.342;2022-11-20T01:26:12;4.10;99.90
21744;DHT22;11034;48.556;9.342;2022-11-20T01:28:41;4.10;99.90
21744;DHT22;11034;48.556;9.342;2022-11-20T01:31:14;4.20;99.90
21744;DHT22;11034;48.556;9.342;2022-11-20T01:33:43;4.20;99.90
21744;DHT22;11034;48.556;9.342;2022-11-20T01:36:12;4.20;99.90
21744;DHT22;11034;48.556;9.342;2022-11-20T01:38:41;4.20;99.90
21744;DHT22;11034;48.556;9.342;2022-11-20T01:41:12;4.20;99.90
21744;DHT22;11034;48.556;9.342;2022-11-20T01:44:03;4.20;99.90
21744;DHT22;11034;48.556;9.342;2022-11-20T01:46:31;4.20;99.90
21744;DHT22;11034;48.556;9.342;2022-11-20T01:49:03;4.20;99.90
21744;DHT22;11034;48.556;9.342;2022-11-20T01:51:34;4.20;99.90
21744;DHT22;11034;48.556;9.342;2022-11-20T01:54:05;4.20;99.90
21744;DHT22;11034;48.556;9.342;2022-11-20T01:56:39;4.20;99.90
21744;DHT22;11034;48.556;9.342;2022-11-20T01:59:10;4.20;99.90
21744;DHT22;11034;48.556;9.342;2022-11-20T02:01:40;4.10;99.90
21744;DHT22;11034;48.556;9.342;2022-11-20T02:04:08;4.10;99.90
21744;DHT22;11034;48.556;9.342;2022-11-20T02:06:41;4.10;99.90
21744;DHT22;11034;48.556;9.342;2022-11-20T02:09:10;4.10;99.90
21744;DHT22;11034;48.556;9.342;2022-11-20T02:11:39;4.10;99.90
21744;DHT22;11034;48.556;9.342;2022-11-20T02:14:08;4.10;99.90
21744;DHT22;11034;48.556;9.342;2022-11-20T02:16:37;4.10;99.90
21744;DHT22;11034;48.556;9.342;2022-11-20T02:19:13;4.10;99.90
21744;DHT22;11034;48.556;9.342;2022-11-20T02:21:49;4.10;99.90
21744;DHT22;11034;48.556;9.342;2022-11-20T02:24:22;4.20;99.90
21744;DHT22;11034;48.556;9.342;2022-11-20T02:26:53;4.20;99.90
21744;DHT22;11034;48.556;9.342;2022-11-20T02:29:25;4.20;99.90
21744;DHT22;11034;48.556;9.342;2022-11-20T02:31:55;4.20;99.90
21744;DHT22;11034;48.556;9.342;2022-11-20T02:34:23;4.30;99.90
21744;DHT22;11034;48.556;9.342;2022-11-20T02:36:52;4.30;99.90
21744;DHT22;11034;48.556;9.342;2022-11-20T02:39:23;4.30;99.90
21744;DHT22;11034;48.556;9.342;2022-11-20T02:41:53;4.30;99.90
21744;DHT22;11034;48.556;9.342;2022-11-20T02:44:21;4.30;99.90
21744;DHT22;11034;48.556;9.342;2022-11-20T02:46:49;4.30;99.90
21744;DHT22;11034;48.556;9.342;2022-11-20T02:49:17;4.40;99.90
21744;DHT22;11034;48.556;9.342;2022-11-20T02:51:46;4.30;99.90
21744;DHT22;11034;48.556;9.342;2022-11-20T02:54:14;4.40;99.90
21744;DHT22;11034;48.556;9.342;2022-11-20T02:56:43;4.30;99.90
21744;DHT22;11034;48.556;9.342;2022-11-20T02:59:11;4.30;99.90
21744;DHT22;11034;48.556;9.342;2022-11-20T03:01:39;4.30;99.90
21744;DHT22;11034;48.556;9.342;2022-11-20T03:04:07;4.40;99.90
21744;DHT22;11034;48.556;9.342;2022-11-20T03:06:35;4.40;99.90
21744;DHT22;11034;48.556;9.342;2022-11-20T03:09:03;4.40;99.90
21744;DHT22;11034;48.556;9.342;2022-11-20T03:11:31;4.40;99.90
21744;DHT22;11034;48.556;9.342;2022-11-20T03:14:02;4.40;99.90
21744;DHT22;11034;48.556;9.342;2022-11-20T03:16:31;4.40;99.90
21744;DHT22;11034;48.556;9.342;2022-11-20T03:18:59;4.40;99.90
21744;DHT22;11034;48.556;9.342;2022-11-20T03:21:28;4.40;99.90
21744;DHT22;11034;48.556;9.342;2022-11-20T03:23:56;4.40;99.90
21744;DHT22;11034;48.556;9.342;2022-11-20T03:26:25;4.40;99.90
21744;DHT22;11034;48.556;9.342;2022-11-20T03:28:55;4.40;99.90
21744;DHT22;11034;48.556;9.342;2022-11-20T03:31:26;4.40;99.90
21744;DHT22;11034;48.556;9.342;2022-11-20T03:33:55;4.40;99.90
21744;DHT22;11034;48.556;9.342;2022-11-20T03:36:26;4.30;99.90
21744;DHT22;11034;48.556;9.342;2022-11-20T03:38:55;4.40;99.90
21744;DHT22;11034;48.556;9.342;2022-11-20T03:41:25;4.30;99.90
21744;DHT22;11034;48.556;9.342;2022-11-20T03:43:54;4.40;99.90
21744;DHT22;11034;48.556;9.342;2022-11-20T03:46:24;4.40;99.90
21744;DHT22;11034;48.556;9.342;2022-11-20T03:48:53;4.40;99.90
21744;DHT22;11034;48.556;9.342;2022-11-20T03:51:23;4.40;99.90
21744;DHT22;11034;48.556;9.342;2022-11-20T03:53:52;4.40;99.90
21744;DHT22;11034;48.556;9.342;2022-11-20T03:56:23;4.40;99.90
21744;DHT22;11034;48.556;9.342;2022-11-20T03:58:51;4.40;99.90
21744;DHT22;11034;48.556;9.342;2022-11-20T04:01:22;4.60;99.90
21744;DHT22;11034;48.556;9.342;2022-11-20T04:03:52;4.70;99.90
21744;DHT22;11034;48.556;9.342;2022-11-20T04:06:22;4.80;99.90
21744;DHT22;11034;48.556;9.342;2022-11-20T04:08:50;4.90;99.90
21744;DHT22;11034;48.556;9.342;2022-11-20T04:11:21;4.90;99.90
21744;DHT22;11034;48.556;9.342;2022-11-20T04:13:51;5.00;99.90
21744;DHT22;11034;48.556;9.342;2022-11-20T04:16:20;5.00;99.90
21744;DHT22;11034;48.556;9.342;2022-11-20T04:18:54;5.00;99.90
21744;DHT22;11034;48.556;9.342;2022-11-20T04:21:22;5.00;99.90
21744;DHT22;11034;48.556;9.342;2022-11-20T04:23:50;5.10;99.90
21744;DHT22;11034;48.556;9.342;2022-11-20T04:26:20;5.10;99.90
21744;DHT22;11034;48.556;9.342;2022-11-20T04:28:48;5.10;99.90
21744;DHT22;11034;48.556;9.342;2022-11-20T04:31:18;5.10;99.90
21744;DHT22;11034;48.556;9.342;2022-11-20T04:33:47;5.20;99.90
21744;DHT22;11034;48.556;9.342;2022-11-20T04:36:18;5.20;99.90
21744;DHT22;11034;48.556;9.342;2022-11-20T04:38:49;5.10;99.90
21744;DHT22;11034;48.556;9.342;2022-11-20T04:41:24;5.20;99.90
21744;DHT22;11034;48.556;9.342;2022-11-20T04:43:54;5.20;99.90
21744;DHT22;11034;48.556;9.342;2022-11-20T04:46:27;5.20;99.90
21744;DHT22;11034;48.556;9.342;2022-11-20T04:48:55;5.10;99.90
21744;DHT22;11034;48.556;9.342;2022-11-20T04:51:25;5.20;99.90
21744;DHT22;11034;48.556;9.342;2022-11-20T04:53:53;5.20;99.90
21744;DHT22;11034;48.556;9.342;2022-11-20T04:56:22;5.20;99.90
21744;DHT22;11034;48.556;9.342;2022-11-20T04:58:50;5.20;99.90
21744;DHT22;11034;48.556;9.342;2022-11-20T05:01:20;5.20;99.90
21744;DHT22;11034;48.556;9.342;2022-11-20T05:03:50;5.20;99.90
21744;DHT22;11034;48.556;9.342;2022-11-20T05:06:20;5.20;99.90
21744;DHT22;11034;48.556;9.342;2022-11-20T05:08:50;5.10;99.90
21744;DHT22;11034;48.556;9.342;2022-11-20T05:11:19;5.10;99.90
21744;DHT22;11034;48.556;9.342;2022-11-20T05:13:48;5.20;99.90
21744;DHT22;11034;48.556;9.342;2022-11-20T05:16:18;5.20;99.90
21744;DHT22;11034;48.556;9.342;2022-11-20T05:18:47;5.20;99.90
21744;DHT22;11034;48.556;9.342;2022-11-20T05:21:16;5.20;99.90
21744;DHT22;11034;48.556;9.342;2022-11-20T05:23:44;5.20;99.90
21744;DHT22;11034;48.556;9.342;2022-11-20T05:26:16;5.20;99.90
21744;DHT22;11034;48.556;9.342;2022-11-20T05:28:44;5.20;99.90
21744;DHT22;11034;48.556;9.342;2022-11-20T05:31:14;5.30;99.90
21744;DHT22;11034;48.556;9.342;2022-11-20T05:33:49;5.20;99.90
21744;DHT22;11034;48.556;9.342;2022-11-20T05:36:17;5.20;99.90
21744;DHT22;11034;48.556;9.342;2022-11-20T05:38:45;5.20;99.90
21744;DHT22;11034;48.556;9.342;2022-11-20T05:41:20;5.20;99.90
21744;DHT22;11034;48.556;9.342;2022-11-20T05:43:49;5.20;99.90
21744;DHT22;11034;48.556;9.342;2022-11-20T05:46:19;5.20;99.90
21744;DHT22;11034;48.556;9.342;2022-11-20T05:48:55;5.30;99.90
21744;DHT22;11034;48.556;9.342;2022-11-20T05:51:24;5.20;99.90
21744;DHT22;11034;48.556;9.342;2022-11-20T05:53:52;5.20;99.90
21744;DHT22;11034;48.556;9.342;2022-11-20T05:56:22;5.20;99.90
21744;DHT22;11034;48.556;9.342;2022-11-20T05:58:49;5.20;99.90
21744;DHT22;11034;48.556;9.342;2022-11-20T06:01:19;5.20;99.90
21744;DHT22;11034;48.556;9.342;2022-11-20T06:03:47;5.20;99.90
21744;DHT22;11034;48.556;9.342;2022-11-20T06:06:18;5.20;99.90
21744;DHT22;11034;48.556;9.342;2022-11-20T06:08:46;5.20;99.90
21744;DHT22;11034;48.556;9.342;2022-11-20T06:11:15;5.10;99.90
21744;DHT22;11034;48.556;9.342;2022-11-20T06:13:45;5.10;99.90
21744;DHT22;11034;48.556;9.342;2022-11-20T06:16:16;5.20;99.90
21744;DHT22;11034;48.556;9.342;2022-11-20T06:18:44;5.20;99.90
21744;DHT22;11034;48.556;9.342;2022-11-20T06:21:14;5.20;99.90
21744;DHT22;11034;48.556;9.342;2022-11-20T06:23:42;5.10;99.90
21744;DHT22;11034;48.556;9.342;2022-11-20T06:26:13;5.20;99.90
21744;DHT22;11034;48.556;9.342;2022-11-20T06:28:42;5.20;99.90
21744;DHT22;11034;48.556;9.342;2022-11-20T06:31:13;5.20;99.90
21744;DHT22;11034;48.556;9.342;2022-11-20T06:33:42;5.10;99.90
21744;DHT22;11034;48.556;9.342;2022-11-20T06:36:11;5.10;99.90
21744;DHT22;11034;48.556;9.342;2022-11-20T06:38:40;5.00;99.90
21744;DHT22;11034;48.556;9.342;2022-11-20T06:41:11;5.00;99.90
21744;DHT22;11034;48.556;9.342;2022-11-20T06:43:39;5.00;99.90
21744;DHT22;11034;48.556;9.342;2022-11-20T06:46:09;5.00;99.90
21744;DHT22;11034;48.556;9.342;2022-11-20T06:48:39;5.00;99.90
21744;DHT22;11034;48.556;9.342;2022-11-20T06:51:08;5.00;99.90
21744;DHT22;11034;48.556;9.342;2022-11-20T06:53:36;5.00;99.90
21744;DHT22;11034;48.556;9.342;2022-11-20T06:56:05;5.00;99.90
21744;DHT22;11034;48.556;9.342;2022-11-20T06:58:35;5.10;99.90
21744;DHT22;11034;48.556;9.342;2022-11-20T07:01:06;5.10;99.90
21744;DHT22;11034;48.556;9.342;2022-11-20T07:03:34;5.10;99.90
21744;DHT22;11034;48.556;9.342;2022-11-20T07:06:04;5.10;99.90
21744;DHT22;11034;48.556;9.342;2022-11-20T07:08:33;5.10;99.90
21744;DHT22;11034;48.556;9.342;2022-11-20T07:11:03;5.10;99.90
21744;DHT22;11034;48.556;9.342;2022-11-20T07:13:31;5.10;99.90
21744;DHT22;11034;48.556;9.342;2022-11-20T07:16:00;5.10;99.90
21744;DHT22;11034;48.556;9.342;2022-11-20T07:18:28;5.20;99.90
21744;DHT22;11034;48.556;9.342;2022-11-20T07:21:00;5.20;99.90
21744;DHT22;11034;48.556;9.342;2022-11-20T07:23:29;5.20;99.90
21744;DHT22;11034;48.556;9.342;2022-11-20T07:25:57;5.20;99.90
21744;DHT22;11034;48.556;9.342;2022-11-20T07:28:25;5.30;99.90
21744;DHT22;11034;48.556;9.342;2022-11-20T07:30:53;5.30;99.90
21744;DHT22;11034;48.556;9.342;2022-11-20T07:33:21;5.30;99.90
21744;DHT22;11034;48.556;9.342;2022-11-20T07:35:50;5.40;99.90
21744;DHT22;11034;48.556;9.342;2022-11-20T07:38:18;5.40;99.90
21744;DHT22;11034;48.556;9.342;2022-11-20T07:40:48;5.50;99.90
21744;DHT22;11034;48.556;9.342;2022-11-20T07:43:16;5.50;99.90
21744;DHT22;11034;48.556;9.342;2022-11-20T07:45:43;5.50;99.90
21744;DHT22;11034;48.556;9.342;2022-11-20T07:48:11;5.60;99.90
21744;DHT22;11034;48.556;9.342;2022-11-20T07:50:40;5.60;99.90
21744;DHT22;11034;48.556;9.342;2022-11-20T07:53:08;5.60;99.90
21744;DHT22;11034;48.556;9.342;2022-11-20T07:55:36;5.60;99.90
21744;DHT22;11034;48.556;9.342;2022-11-20T07:58:05;5.70;99.90
21744;DHT22;11034;48.556;9.342;2022-11-20T08:00:33;5.70;99.90
21744;DHT22;11034;48.556;9.342;2022-11-20T08:03:03;5.60;99.90
21744;DHT22;11034;48.556;9.342;2022-11-20T08:05:31;5.60;99.90
21744;DHT22;11034;48.556;9.342;2022-11-20T08:07:59;5.70;99.90
21744;DHT22;11034;48.556;9.342;2022-11-20T08:10:27;5.80;99.90
21744;DHT22;11034;48.556;9.342;2022-11-20T08:12:55;6.00;99.90
21744;DHT22;11034;48.556;9.342;2022-11-20T08:15:48;6.10;99.90
21744;DHT22;11034;48.556;9.342;2022-11-20T08:18:17;6.10;99.90
21744;DHT22;11034;48.556;9.342;2022-11-20T08:21:02;6.10;99.90
21744;DHT22;11034;48.556;9.342;2022-11-20T08:23:30;6.20;99.90
21744;DHT22;11034;48.556;9.342;2022-11-20T08:25:58;6.30;99.90
21744;DHT22;11034;48.556;9.342;2022-11-20T08:28:26;6.20;99.90
21744;DHT22;11034;48.556;9.342;2022-11-20T08:30:59;6.20;99.90
21744;DHT22;11034;48.556;9.342;2022-11-20T08:33:28;6.20;99.90
21744;DHT22;11034;48.556;9.342;2022-11-20T08:35:59;6.20;99.90
21744;DHT22;11034;48.556;9.342;2022-11-20T08:38:27;6.20;99.90
21744;DHT22;11034;48.556;9.342;2022-11-20T08:40:57;6.30;99.90
21744;DHT22;11034;48.556;9.342;2022-11-20T08:43:42;6.30;99.90
21744;DHT22;11034;48.556;9.342;2022-11-20T08:46:12;6.20;99.90
21744;DHT22;11034;48.556;9.342;2022-11-20T08:48:40;6.20;99.90
21744;DHT22;11034;48.556;9.342;2022-11-20T08:51:08;6.10;99.90
21744;DHT22;11034;48.556;9.342;2022-11-20T08:53:36;6.10;99.90
21744;DHT22;11034;48.556;9.342;2022-11-20T08:56:05;6.00;99.90
21744;DHT22;11034;48.556;9.342;2022-11-20T08:58:33;6.00;99.90
21744;DHT22;11034;48.556;9.342;2022-11-20T09:01:23;6.00;99.90
21744;DHT22;11034;48.556;9.342;2022-11-20T09:03:51;6.00;99.90
21744;DHT22;11034;48.556;9.342;2022-11-20T09:06:22;6.00;99.90
21744;DHT22;11034;48.556;9.342;2022-11-20T09:08:57;6.00;99.90
21744;DHT22;11034;48.556;9.342;2022-11-20T09:11:32;6.10;99.90
21744;DHT22;11034;48.556;9.342;2022-11-20T09:14:02;6.10;99.90
21744;DHT22;11034;48.556;9.342;2022-11-20T09:16:35;6.10;99.90
21744;DHT22;11034;48.556;9.342;2022-11-20T09:19:08;6.20;99.90
21744;DHT22;11034;48.556;9.342;2022-11-20T09:21:56;6.20;99.90
21744;DHT22;11034;48.556;9.342;2022-11-20T09:24:25;6.20;99.90
21744;DHT22;11034;48.556;9.342;2022-11-20T09:26:54;6.20;99.90
21744;DHT22;11034;48.556;9.342;2022-11-20T09:29:22;6.20;99.90
21744;DHT22;11034;48.556;9.342;2022-11-20T09:31:52;6.20;99.90
21744;DHT22;11034;48.556;9.342;2022-11-20T09:34:20;6.30;99.90
21744;DHT22;11034;48.556;9.342;2022-11-20T09:36:48;6.30;99.90
21744;DHT22;11034;48.556;9.342;2022-11-20T09:39:16;6.20;99.90
21744;DHT22;11034;48.556;9.342;2022-11-20T09:42:16;6.30;99.90
21744;DHT22;11034;48.556;9.342;2022-11-20T09:45:01;6.30;99.90
21744;DHT22;11034;48.556;9.342;2022-11-20T09:47:42;6.30;99.90
21744;DHT22;11034;48.556;9.342;2022-11-20T09:50:23;6.30;99.90
21744;DHT22;11034;48.556;9.342;2022-11-20T09:53:10;6.40;99.90
21744;DHT22;11034;48.556;9.342;2022-11-20T09:55:39;6.30;99.90
21744;DHT22;11034;48.556;9.342;2022-11-20T09:58:14;6.20;99.90
21744;DHT22;11034;48.556;9.342;2022-11-20T10:00:43;6.30;99.90
21744;DHT22;11034;48.556;9.342;2022-11-20T10:03:16;6.30;99.90
21744;DHT22;11034;48.556;9.342;2022-11-20T10:05:46;6.20;99.90
21744;DHT22;11034;48.556;9.342;2022-11-20T10:08:19;6.20;99.90
21744;DHT22;11034;48.556;9.342;2022-11-20T10:10:52;6.10;99.90
21744;DHT22;11034;48.556;9.342;2022-11-20T10:13:33;6.10;99.90
21744;DHT22;11034;48.556;9.342;2022-11-20T10:16:13;6.10;99.90
21744;DHT22;11034;48.556;9.342;2022-11-20T10:18:54;6.10;99.90
21744;DHT22;11034;48.556;9.342;2022-11-20T10:21:30;6.20;99.90
21744;DHT22;11034;48.556;9.342;2022-11-20T10:24:42;6.20;99.90
21744;DHT22;11034;48.556;9.342;2022-11-20T10:27:36;6.20;99.90
21744;DHT22;11034;48.556;9.342;2022-11-20T10:30:09;6.10;99.90
21744;DHT22;11034;48.556;9.342;2022-11-20T10:32:40;6.00;99.90
21744;DHT22;11034;48.556;9.342;2022-11-20T10:35:20;6.00;99.90
21744;DHT22;11034;48.556;9.342;2022-11-20T10:37:53;6.00;99.90
21744;DHT22;11034;48.556;9.342;2022-11-20T10:40:29;5.90;99.90
21744;DHT22;11034;48.556;9.342;2022-11-20T10:43:01;5.90;99.90
21744;DHT22;11034;48.556;9.342;2022-11-20T10:45:36;5.90;99.90
21744;DHT22;11034;48.556;9.342;2022-11-20T10:48:12;5.80;99.90
21744;DHT22;11034;48.556;9.342;2022-11-20T10:50:52;5.80;99.90
21744;DHT22;11034;48.556;9.342;2022-11-20T10:53:38;5.80;99.90
21744;DHT22;11034;48.556;9.342;2022-11-20T10:56:16;5.90;99.90
21744;DHT22;11034;48.556;9.342;2022-11-20T10:59:02;5.90;99.90
21744;DHT22;11034;48.556;9.342;2022-11-20T11:01:31;6.00;99.90
21744;DHT22;11034;48.556;9.342;2022-11-20T11:03:59;6.10;99.90
21744;DHT22;11034;48.556;9.342;2022-11-20T11:06:37;6.20;99.90
21744;DHT22;11034;48.556;9.342;2022-11-20T11:09:13;6.30;99.90
21744;DHT22;11034;48.556;9.342;2022-11-20T11:11:43;6.20;99.90
21744;DHT22;11034;48.556;9.342;2022-11-20T11:14:12;6.20;99.90
21744;DHT22;11034;48.556;9.342;2022-11-20T11:16:49;6.20;99.90
21744;DHT22;11034;48.556;9.342;2022-11-20T11:19:18;6.30;99.90
21744;DHT22;11034;48.556;9.342;2022-11-20T11:21:50;6.30;99.90
21744;DHT22;11034;48.556;9.342;2022-11-20T11:24:23;6.40;99.90
21744;DHT22;11034;48.556;9.342;2022-11-20T11:27:12;6.50;99.90
21744;DHT22;11034;48.556;9.342;2022-11-20T11:29:43;6.60;99.90
21744;DHT22;11034;48.556;9.342;2022-11-20T11:32:14;6.70;99.90
21744;DHT22;11034;48.556;9.342;2022-11-20T11:34:42;6.70;99.90
21744;DHT22;11034;48.556;9.342;2022-11-20T11:37:16;6.80;99.90
21744;DHT22;11034;48.556;9.342;2022-11-20T11:39:46;7.00;99.90
21744;DHT22;11034;48.556;9.342;2022-11-20T11:42:30;6.90;99.90
21744;DHT22;11034;48.556;9.342;2022-11-20T11:44:59;6.90;99.90
21744;DHT22;11034;48.556;9.342;2022-11-20T11:47:35;6.90;99.90
21744;DHT22;11034;48.556;9.342;2022-11-20T11:50:16;6.90;99.90
21744;DHT22;11034;48.556;9.342;2022-11-20T11:52:51;7.10;99.90
21744;DHT22;11034;48.556;9.342;2022-11-20T11:55:29;7.40;99.90
21744;DHT22;11034;48.556;9.342;2022-11-20T11:58:08;7.40;99.90
21744;DHT22;11034;48.556;9.342;2022-11-20T12:00:40;7.30;99.90
21744;DHT22;11034;48.556;9.342;2022-11-20T12:03:14;7.10;99.90
21744;DHT22;11034;48.556;9.342;2022-11-20T12:05:45;7.00;99.90
21744;DHT22;11034;48.556;9.342;2022-11-20T12:08:21;7.10;99.90
21744;DHT22;11034;48.556;9.342;2022-11-20T12:10:55;7.20;99.90
21744;DHT22;11034;48.556;9.342;2022-11-20T12:13:35;7.40;99.90
21744;DHT22;11034;48.556;9.342;2022-11-20T12:16:07;7.50;99.90
21744;DHT22;11034;48.556;9.342;2022-11-20T12:18:37;7.60;99.90
21744;DHT22;11034;48.556;9.342;2022-11-20T12:21:17;7.60;99.90
21744;DHT22;11034;48.556;9.342;2022-11-20T12:24:00;7.50;99.90
21744;DHT22;11034;48.556;9.342;2022-11-20T12:26:44;7.40;99.90
21744;DHT22;11034;48.556;9.342;2022-11-20T12:29:18;7.20;99.90
21744;DHT22;11034;48.556;9.342;2022-11-20T12:32:00;7.20;99.90
21744;DHT22;11034;48.556;9.342;2022-11-20T12:34:45;7.20;99.90
21744;DHT22;11034;48.556;9.342;2022-11-20T12:37:28;7.10;99.90
21744;DHT22;11034;48.556;9.342;2022-11-20T12:40:04;7.10;99.90
21744;DHT22;11034;48.556;9.342;2022-11-20T12:42:53;7.00;99.90
21744;DHT22;11034;48.556;9.342;2022-11-20T12:45:57;7.00;99.90
21744;DHT22;11034;48.556;9.342;2022-11-20T12:48:59;7.10;99.90
21744;DHT22;11034;48.556;9.342;2022-11-20T12:51:40;7.10;99.90
21744;DHT22;11034;48.556;9.342;2022-11-20T12:54:33;7.10;99.90
21744;DHT22;11034;48.556;9.342;2022-11-20T12:57:08;7.10;99.90
21744;DHT22;11034;48.556;9.342;2022-11-20T12:59:51;7.20;99.90
21744;DHT22;11034;48.556;9.342;2022-11-20T13:02:26;7.40;99.90
21744;DHT22;11034;48.556;9.342;2022-11-20T13:05:18;7.60;99.90
21744;DHT22;11034;48.556;9.342;2022-11-20T13:07:49;7.70;99.90
21744;DHT22;11034;48.556;9.342;2022-11-20T13:10:23;7.60;99.90
21744;DHT22;11034;48.556;9.342;2022-11-20T13:12:58;7.50;99.90
21744;DHT22;11034;48.556;9.342;2022-11-20T13:15:36;7.50;99.90
21744;DHT22;11034;48.556;9.342;2022-11-20T13:18:09;7.60;99.90
21744;DHT22;11034;48.556;9.342;2022-11-20T13:20:42;7.70;99.90
21744;DHT22;11034;48.556;9.342;2022-11-20T13:23:11;7.60;99.90
21744;DHT22;11034;48.556;9.342;2022-11-20T13:25:40;7.50;99.90
21744;DHT22;11034;48.556;9.342;2022-11-20T13:28:28;7.50;99.90
21744;DHT22;11034;48.556;9.342;2022-11-20T13:30:57;7.30;99.90
21744;DHT22;11034;48.556;9.342;2022-11-20T13:33:30;7.40;99.90
21744;DHT22;11034;48.556;9.342;2022-11-20T13:36:00;7.40;99.90
21744;DHT22;11034;48.556;9.342;2022-11-20T13:38:40;7.40;99.90
21744;DHT22;11034;48.556;9.342;2022-11-20T13:41:10;7.40;99.90
21744;DHT22;11034;48.556;9.342;2022-11-20T13:44:05;7.20;99.90
21744;DHT22;11034;48.556;9.342;2022-11-20T13:46:38;7.20;99.90
21744;DHT22;11034;48.556;9.342;2022-11-20T13:49:09;7.10;99.90
21744;DHT22;11034;48.556;9.342;2022-11-20T13:51:43;7.10;99.90
21744;DHT22;11034;48.556;9.342;2022-11-20T13:57:46;7.00;99.90
21744;DHT22;11034;48.556;9.342;2022-11-20T14:00:21;6.90;99.90
21744;DHT22;11034;48.556;9.342;2022-11-20T14:02:59;6.90;99.90
21744;DHT22;11034;48.556;9.342;2022-11-20T14:05:31;6.90;99.90
21744;DHT22;11034;48.556;9.342;2022-11-20T14:08:03;6.90;99.90
21744;DHT22;11034;48.556;9.342;2022-11-20T14:10:32;6.80;99.90
21744;DHT22;11034;48.556;9.342;2022-11-20T14:13:10;6.90;99.90
21744;DHT22;11034;48.556;9.342;2022-11-20T14:15:40;7.00;99.90
21744;DHT22;11034;48.556;9.342;2022-11-20T14:18:13;7.10;99.90
21744;DHT22;11034;48.556;9.342;2022-11-20T14:20:42;7.00;99.90
21744;DHT22;11034;48.556;9.342;2022-11-20T14:23:11;6.80;99.90
21744;DHT22;11034;48.556;9.342;2022-11-20T14:25:42;6.60;99.90
21744;DHT22;11034;48.556;9.342;2022-11-20T14:28:17;6.50;99.90
21744;DHT22;11034;48.556;9.342;2022-11-20T14:30:49;6.40;99.90
21744;DHT22;11034;48.556;9.342;2022-11-20T14:33:18;6.30;99.90
21744;DHT22;11034;48.556;9.342;2022-11-20T14:35:52;6.20;99.90
21744;DHT22;11034;48.556;9.342;2022-11-20T14:38:25;6.20;99.90
21744;DHT22;11034;48.556;9.342;2022-11-20T14:40:54;6.20;99.90
21744;DHT22;11034;48.556;9.342;2022-11-20T14:43:24;6.20;99.90
21744;DHT22;11034;48.556;9.342;2022-11-20T14:45:57;6.30;99.90
21744;DHT22;11034;48.556;9.342;2022-11-20T14:48:30;6.30;99.90
21744;DHT22;11034;48.556;9.342;2022-11-20T14:50:59;6.20;99.90
21744;DHT22;11034;48.556;9.342;2022-11-20T14:53:27;6.20;99.90
21744;DHT22;11034;48.556;9.342;2022-11-20T14:55:57;6.20;99.90
21744;DHT22;11034;48.556;9.342;2022-11-20T14:58:27;6.20;99.90
21744;DHT22;11034;48.556;9.342;2022-11-20T15:01:07;6.10;99.90
21744;DHT22;11034;48.556;9.342;2022-11-20T15:03:40;6.10;99.90
21744;DHT22;11034;48.556;9.342;2022-11-20T15:06:11;6.10;99.90
21744;DHT22;11034;48.556;9.342;2022-11-20T15:08:50;6.00;99.90
21744;DHT22;11034;48.556;9.342;2022-11-20T15:11:20;6.00;99.90
21744;DHT22;11034;48.556;9.342;2022-11-20T15:13:51;5.90;99.90
21744;DHT22;11034;48.556;9.342;2022-11-20T15:16:22;5.90;99.90
21744;DHT22;11034;48.556;9.342;2022-11-20T15:18:51;5.80;99.90
21744;DHT22;11034;48.556;9.342;2022-11-20T15:21:20;5.70;99.90
21744;DHT22;11034;48.556;9.342;2022-11-20T15:23:49;5.70;99.90
21744;DHT22;11034;48.556;9.342;2022-11-20T15:26:22;5.70;99.90
21744;DHT22;11034;48.556;9.342;2022-11-20T15:28:51;5.70;99.90
21744;DHT22;11034;48.556;9.342;2022-11-20T15:31:22;5.60;99.90
21744;DHT22;11034;48.556;9.342;2022-11-20T15:33:51;5.50;99.90
21744;DHT22;11034;48.556;9.342;2022-11-20T15:36:19;5.60;99.90
21744;DHT22;11034;48.556;9.342;2022-11-20T15:38:47;5.60;99.90
21744;DHT22;11034;48.556;9.342;2022-11-20T15:41:16;5.70;99.90
21744;DHT22;11034;48.556;9.342;2022-11-20T15:43:44;5.70;99.90
21744;DHT22;11034;48.556;9.342;2022-11-20T15:46:14;5.60;99.90
21744;DHT22;11034;48.556;9.342;2022-11-20T15:48:54;5.50;99.90
21744;DHT22;11034;48.556;9.342;2022-11-20T15:51:24;5.50;99.90
21744;DHT22;11034;48.556;9.342;2022-11-20T15:53:55;5.40;99.90
21744;DHT22;11034;48.556;9.342;2022-11-20T15:56:24;5.30;99.90
21744;DHT22;11034;48.556;9.342;2022-11-20T15:58:52;5.30;99.90
21744;DHT22;11034;48.556;9.342;2022-11-20T16:01:21;5.20;99.90
21744;DHT22;11034;48.556;9.342;2022-11-20T16:03:51;5.10;99.90
21744;DHT22;11034;48.556;9.342;2022-11-20T16:06:19;5.00;99.90
21744;DHT22;11034;48.556;9.342;2022-11-20T16:08:47;4.90;99.90
21744;DHT22;11034;48.556;9.342;2022-11-20T16:11:16;4.80;99.90
21744;DHT22;11034;48.556;9.342;2022-11-20T16:13:45;4.70;99.90
21744;DHT22;11034;48.556;9.342;2022-11-20T16:16:33;4.50;99.90
21744;DHT22;11034;48.556;9.342;2022-11-20T16:19:03;4.50;99.90